createdAt,value
2023-04-14T00:00:21.474Z,11.90
2023-04-14T00:02:49.682Z,12.37
2023-04-14T00:05:18.202Z,11.40
2023-04-14T00:07:46.459Z,11.50
2023-04-14T00:10:14.535Z,12.20
2023-04-14T00:12:42.990Z,11.43
2023-04-14T00:15:11.882Z,11.67
2023-04-14T00:17:41.365Z,11.40
2023-04-14T00:20:10.545Z,12.20
2023-04-14T00:22:38.579Z,11.03
2023-04-14T00:25:07.596Z,11.40
2023-04-14T00:27:35.836Z,11.80
2023-04-14T00:30:04.086Z,11.27
2023-04-14T00:32:32.157Z,10.83
2023-04-14T00:35:03.507Z,11.47
2023-04-14T00:37:31.868Z,10.60
2023-04-14T00:39:59.969Z,10.20
2023-04-14T00:42:28.034Z,11.00
2023-04-14T00:44:56.074Z,11.63
2023-04-14T00:47:24.229Z,10.70
2023-04-14T00:49:52.511Z,11.17
2023-04-14T00:52:24.536Z,11.40
2023-04-14T00:54:52.779Z,10.17
2023-04-14T00:57:20.889Z,10.07
2023-04-14T00:59:49.072Z,9.60
2023-04-14T01:02:17.231Z,9.53
2023-04-14T01:04:53.765Z,9.77
2023-04-14T01:07:25.591Z,9.40
2023-04-14T01:09:55.229Z,10.43
2023-04-14T01:12:29.700Z,10.67
2023-04-14T01:15:05.812Z,10.10
2023-04-14T01:17:40.749Z,9.93
2023-04-14T01:20:14.533Z,9.73
2023-04-14T01:22:49.481Z,10.20
2023-04-14T01:25:36.043Z,10.47
2023-04-14T01:28:15.715Z,10.80
2023-04-14T01:30:56.591Z,10.80
2023-04-14T01:33:28.045Z,9.60
2023-04-14T01:35:59.912Z,9.87
2023-04-14T01:38:30.694Z,9.60
2023-04-14T01:41:03.856Z,9.43
2023-04-14T01:43:33.574Z,9.93
2023-04-14T01:46:06.895Z,10.23
2023-04-14T01:48:37.193Z,10.13
2023-04-14T01:51:06.975Z,10.10
2023-04-14T01:53:38.167Z,10.70
2023-04-14T01:56:09.002Z,9.83
2023-04-14T01:58:38.250Z,10.03
2023-04-14T02:01:07.917Z,9.70
2023-04-14T02:03:37.898Z,10.60
2023-04-14T02:06:06.606Z,9.97
2023-04-14T02:08:35.321Z,10.03
2023-04-14T02:11:05.707Z,9.50
2023-04-14T02:13:34.961Z,9.60
2023-04-14T02:16:04.139Z,9.90
2023-04-14T02:18:33.385Z,10.27
2023-04-14T02:21:04.737Z,10.10
2023-04-14T02:23:33.070Z,9.73
2023-04-14T02:26:05.639Z,9.57
2023-04-14T02:28:37.715Z,9.73
2023-04-14T02:31:10.648Z,9.73
2023-04-14T02:33:40.252Z,9.60
2023-04-14T02:36:15.009Z,9.30
2023-04-14T02:38:47.772Z,9.90
2023-04-14T02:41:23.586Z,9.20
2023-04-14T02:43:56.950Z,9.50
2023-04-14T02:46:27.014Z,8.70
2023-04-14T02:48:56.336Z,9.33
2023-04-14T02:51:27.363Z,9.23
2023-04-14T02:53:55.956Z,9.10
2023-04-14T02:56:24.750Z,9.13
2023-04-14T02:58:54.019Z,9.00
2023-04-14T03:01:23.045Z,9.27
2023-04-14T03:03:52.219Z,9.53
2023-04-14T03:06:20.431Z,9.60
2023-04-14T03:08:51.713Z,9.20
2023-04-14T03:11:21.272Z,8.77
2023-04-14T03:13:52.175Z,8.97
2023-04-14T03:16:21.954Z,9.13
2023-04-14T03:18:51.703Z,8.80
2023-04-14T03:21:22.030Z,9.40
2023-04-14T03:23:53.213Z,8.80
2023-04-14T03:26:24.475Z,8.80
2023-04-14T03:28:54.879Z,9.07
2023-04-14T03:31:31.167Z,9.10
2023-04-14T03:34:01.108Z,9.27
2023-04-14T03:36:32.188Z,9.73
2023-04-14T03:39:05.912Z,9.50
2023-04-14T03:41:37.853Z,8.93
2023-04-14T03:44:07.220Z,8.80
2023-04-14T03:46:35.551Z,8.80
2023-04-14T03:49:11.146Z,9.20
2023-04-14T03:51:41.708Z,9.70
2023-04-14T03:54:15.827Z,9.43
2023-04-14T03:56:48.390Z,8.97
2023-04-14T03:59:19.291Z,9.50
2023-04-14T04:01:48.820Z,8.73
2023-04-14T04:04:17.978Z,9.60
2023-04-14T04:06:46.318Z,9.43
2023-04-14T04:09:18.012Z,9.13
2023-04-14T04:11:48.700Z,9.40
2023-04-14T04:14:19.887Z,9.93
2023-04-14T04:16:50.981Z,10.53
2023-04-14T04:19:22.094Z,10.17
2023-04-14T04:21:52.549Z,10.20
2023-04-14T04:24:25.522Z,10.50
2023-04-14T04:26:55.796Z,9.83
2023-04-14T04:29:24.505Z,9.50
2023-04-14T04:31:55.173Z,9.37
2023-04-14T04:34:25.665Z,10.13
2023-04-14T04:36:54.892Z,9.77
2023-04-14T04:39:24.473Z,9.97
2023-04-14T04:41:52.682Z,10.17
2023-04-14T04:44:20.843Z,10.20
2023-04-14T04:46:54.348Z,9.67
2023-04-14T04:49:22.707Z,9.80
2023-04-14T04:51:51.172Z,10.40
2023-04-14T04:54:19.857Z,11.57
2023-04-14T04:56:49.435Z,10.53
2023-04-14T04:59:17.574Z,10.60
2023-04-14T05:01:45.843Z,10.20
2023-04-14T05:04:14.005Z,10.03
2023-04-14T05:06:42.180Z,10.93
2023-04-14T05:09:10.341Z,10.50
2023-04-14T05:11:38.471Z,9.73
2023-04-14T05:14:07.959Z,10.30
2023-04-14T05:16:36.343Z,9.70
2023-04-14T05:19:04.866Z,10.33
2023-04-14T05:21:32.987Z,11.03
2023-04-14T05:24:01.429Z,9.97
2023-04-14T05:29:00.913Z,9.80
2023-04-14T05:31:30.853Z,10.20
2023-04-14T05:33:59.194Z,10.77
2023-04-14T05:36:27.914Z,10.13
2023-04-14T05:38:55.959Z,9.93
2023-04-14T05:41:24.070Z,9.67
2023-04-14T05:43:52.150Z,9.90
2023-04-14T05:46:20.192Z,10.13
2023-04-14T05:48:49.666Z,9.60
2023-04-14T05:51:17.815Z,9.70
2023-04-14T05:53:45.988Z,9.57
2023-04-14T05:56:14.433Z,10.53
2023-04-14T05:58:42.519Z,10.20
2023-04-14T06:01:10.728Z,10.50
2023-04-14T06:03:40.541Z,9.60
2023-04-14T06:06:10.400Z,9.53
2023-04-14T06:08:38.469Z,9.27
2023-04-14T06:11:06.805Z,9.87
2023-04-14T06:13:36.318Z,9.67
2023-04-14T06:16:04.891Z,9.93
2023-04-14T06:18:32.982Z,9.60
2023-04-14T06:21:01.020Z,9.93
2023-04-14T06:23:31.438Z,10.77
2023-04-14T06:25:59.508Z,13.33
2023-04-14T06:28:27.512Z,10.47
2023-04-14T06:30:55.583Z,9.63
2023-04-14T06:33:23.937Z,9.80
2023-04-14T06:35:52.044Z,9.87
2023-04-14T06:38:20.759Z,9.47
2023-04-14T06:40:52.599Z,10.03
2023-04-14T06:43:21.340Z,10.23
2023-04-14T06:45:50.959Z,10.17
2023-04-14T06:48:19.351Z,9.50
2023-04-14T06:50:54.597Z,9.63
2023-04-14T06:53:22.681Z,9.60
2023-04-14T06:55:59.140Z,9.30
2023-04-14T06:58:28.269Z,9.87
2023-04-14T07:00:57.419Z,9.63
2023-04-14T07:03:26.032Z,9.63
2023-04-14T07:05:54.529Z,9.53
2023-04-14T07:08:23.052Z,10.73
2023-04-14T07:11:01.485Z,9.23
2023-04-14T07:13:29.684Z,9.60
2023-04-14T07:15:58.011Z,9.20
2023-04-14T07:18:26.150Z,10.50
2023-04-14T07:20:55.215Z,10.10
2023-04-14T07:23:23.822Z,10.10
2023-04-14T07:25:54.075Z,10.17
2023-04-14T07:28:23.046Z,10.00
2023-04-14T07:30:51.679Z,10.70
2023-04-14T07:33:22.261Z,9.97
2023-04-14T07:36:02.355Z,10.23
2023-04-14T07:38:31.458Z,9.63
2023-04-14T07:41:01.376Z,9.70
2023-04-14T07:43:34.821Z,9.63
2023-04-14T07:46:04.443Z,9.57
2023-04-14T07:48:32.921Z,9.33
2023-04-14T07:51:01.042Z,9.73
2023-04-14T07:53:29.330Z,8.60
2023-04-14T07:55:57.938Z,9.00
2023-04-14T07:58:29.221Z,9.20
2023-04-14T08:00:57.671Z,8.67
2023-04-14T08:03:26.110Z,9.00
2023-04-14T08:05:54.315Z,8.90
2023-04-14T08:08:23.211Z,9.00
2023-04-14T08:10:51.294Z,9.07
2023-04-14T08:13:19.327Z,8.40
2023-04-14T08:15:50.403Z,8.83
2023-04-14T08:18:18.917Z,8.63
2023-04-14T08:20:47.016Z,8.37
2023-04-14T08:23:15.089Z,8.10
2023-04-14T08:25:43.274Z,8.17
2023-04-14T08:28:11.491Z,8.67
2023-04-14T08:30:39.691Z,9.00
2023-04-14T08:33:09.172Z,8.67
2023-04-14T08:35:42.477Z,8.10
2023-04-14T08:38:11.582Z,9.03
2023-04-14T08:40:41.046Z,8.47
2023-04-14T08:43:11.152Z,8.43
2023-04-14T08:45:42.191Z,8.83
2023-04-14T08:48:12.984Z,8.73
2023-04-14T08:50:50.455Z,8.40
2023-04-14T08:53:23.185Z,8.67
2023-04-14T08:55:52.791Z,8.53
2023-04-14T08:58:21.078Z,8.70
2023-04-14T09:00:50.311Z,8.33
2023-04-14T09:03:20.492Z,8.37
2023-04-14T09:05:49.494Z,8.60
2023-04-14T09:08:18.267Z,9.27
2023-04-14T09:10:46.629Z,8.50
2023-04-14T09:13:17.309Z,8.43
2023-04-14T09:15:45.577Z,8.70
2023-04-14T09:18:13.904Z,8.37
2023-04-14T09:20:43.638Z,7.70
2023-04-14T09:23:12.247Z,8.33
2023-04-14T09:25:41.299Z,7.93
2023-04-14T09:28:09.920Z,7.40
2023-04-14T09:30:38.295Z,8.30
2023-04-14T09:33:07.482Z,8.60
2023-04-14T09:35:47.471Z,8.33
2023-04-14T09:38:16.123Z,7.13
2023-04-14T09:40:45.067Z,7.00
2023-04-14T09:43:27.235Z,6.97
2023-04-14T09:45:56.792Z,7.27
2023-04-14T09:48:26.001Z,7.47
2023-04-14T09:51:03.446Z,6.90
2023-04-14T09:53:33.241Z,7.50
2023-04-14T09:56:03.536Z,7.70
2023-04-14T09:58:32.759Z,6.57
2023-04-14T10:01:00.934Z,7.10
2023-04-14T10:03:41.105Z,7.00
2023-04-14T10:06:15.959Z,7.00
2023-04-14T10:08:47.120Z,8.13
2023-04-14T10:11:17.116Z,7.80
2023-04-14T10:13:45.630Z,7.97
2023-04-14T10:16:13.851Z,8.20
2023-04-14T10:18:41.971Z,7.07
2023-04-14T10:21:11.953Z,7.23
2023-04-14T10:23:41.942Z,7.03
2023-04-14T10:26:11.426Z,6.73
2023-04-14T10:28:41.969Z,7.30
2023-04-14T10:31:13.880Z,6.83
2023-04-14T10:33:42.273Z,6.77
2023-04-14T10:36:12.148Z,7.87
2023-04-14T10:38:42.287Z,6.50
2023-04-14T10:41:11.599Z,7.10
2023-04-14T10:43:40.392Z,7.00
2023-04-14T10:46:09.789Z,6.93
2023-04-14T10:48:40.042Z,7.20
2023-04-14T10:51:12.110Z,7.10
2023-04-14T10:53:46.357Z,7.40
2023-04-14T10:56:14.835Z,6.80
2023-04-14T10:58:54.953Z,6.63
2023-04-14T11:01:25.945Z,6.87
2023-04-14T11:03:56.338Z,6.70
2023-04-14T11:06:52.371Z,6.20
2023-04-14T11:09:32.474Z,6.83
2023-04-14T11:12:05.922Z,6.40
2023-04-14T11:14:36.070Z,6.20
2023-04-14T11:17:06.055Z,6.00
2023-04-14T11:19:34.420Z,7.60
2023-04-14T11:22:03.879Z,7.20
2023-04-14T11:24:32.803Z,6.80
2023-04-14T11:27:00.860Z,7.30
2023-04-14T11:29:29.198Z,6.00
2023-04-14T11:32:06.545Z,6.30
2023-04-14T11:34:35.513Z,6.63
2023-04-14T11:37:05.846Z,5.70
2023-04-14T11:39:35.625Z,6.17
2023-04-14T11:42:05.218Z,6.60
2023-04-14T11:44:33.823Z,6.10
2023-04-14T11:47:02.205Z,5.97
2023-04-14T11:49:37.723Z,5.80
2023-04-14T11:52:08.613Z,5.83
2023-04-14T11:54:38.032Z,6.30
2023-04-14T11:57:11.141Z,7.10
2023-04-14T11:59:43.619Z,6.50
2023-04-14T12:02:18.383Z,6.50
2023-04-14T12:04:49.282Z,6.10
2023-04-14T12:07:21.641Z,6.20
2023-04-14T12:09:51.603Z,6.23
2023-04-14T12:12:20.425Z,5.60
2023-04-14T12:14:50.498Z,5.77
2023-04-14T12:17:20.376Z,5.07
2023-04-14T12:19:48.913Z,5.10
2023-04-14T12:22:24.877Z,5.43
2023-04-14T12:24:52.918Z,4.60
2023-04-14T12:27:23.348Z,5.40
2023-04-14T12:29:52.091Z,4.50
2023-04-14T12:32:22.201Z,4.90
2023-04-14T12:34:58.479Z,5.20
2023-04-14T12:37:29.450Z,4.70
2023-04-14T12:40:00.079Z,4.90
2023-04-14T12:42:29.659Z,5.00
2023-04-14T12:44:59.372Z,4.93
2023-04-14T12:47:32.598Z,4.90
2023-04-14T12:50:02.284Z,5.20
2023-04-14T12:52:39.457Z,5.13
2023-04-14T12:55:19.901Z,4.90
2023-04-14T12:57:48.147Z,5.00
2023-04-14T13:00:16.868Z,4.93
2023-04-14T13:02:46.458Z,4.97
2023-04-14T13:05:15.666Z,4.50
2023-04-14T13:07:46.517Z,4.13
2023-04-14T13:10:15.189Z,4.07
2023-04-14T13:12:43.386Z,4.13
2023-04-14T13:15:27.848Z,4.20
2023-04-14T13:18:01.962Z,3.70
2023-04-14T13:20:30.841Z,3.50
2023-04-14T13:23:00.676Z,3.90
2023-04-14T13:25:28.820Z,3.50
2023-04-14T13:27:57.038Z,3.73
2023-04-14T13:30:25.662Z,2.93
2023-04-14T13:32:57.669Z,3.50
2023-04-14T13:35:25.980Z,3.10
2023-04-14T13:37:54.064Z,3.50
2023-04-14T13:40:23.562Z,3.70
2023-04-14T13:42:51.886Z,3.60
2023-04-14T13:45:20.027Z,3.47
2023-04-14T13:47:49.661Z,3.37
2023-04-14T13:50:18.215Z,3.30
2023-04-14T13:52:46.584Z,3.20
2023-04-14T13:55:14.750Z,3.90
2023-04-14T13:57:44.193Z,3.90
2023-04-14T14:00:14.081Z,4.60
2023-04-14T14:02:42.307Z,4.17
2023-04-14T14:05:12.149Z,4.33
2023-04-14T14:07:40.346Z,3.70
2023-04-14T14:10:10.910Z,3.93
2023-04-14T14:12:39.179Z,4.13
2023-04-14T14:15:10.825Z,4.07
2023-04-14T14:17:39.021Z,3.53
2023-04-14T14:20:08.558Z,3.67
2023-04-14T14:22:36.800Z,3.53
2023-04-14T14:25:18.485Z,3.50
2023-04-14T14:27:49.105Z,3.70
2023-04-14T14:30:18.663Z,4.70
2023-04-14T14:32:46.765Z,3.90
2023-04-14T14:35:14.955Z,3.60
2023-04-14T14:37:45.061Z,3.53
2023-04-14T14:40:14.131Z,3.70
2023-04-14T14:42:42.335Z,4.17
2023-04-14T14:45:11.270Z,4.03
2023-04-14T14:47:41.506Z,3.37
2023-04-14T14:50:10.362Z,3.43
2023-04-14T14:52:38.581Z,4.50
2023-04-14T14:55:07.912Z,4.20
2023-04-14T14:57:36.142Z,3.97
2023-04-14T15:00:07.768Z,4.10
2023-04-14T15:02:36.719Z,4.17
2023-04-14T15:05:09.666Z,3.80
2023-04-14T15:07:37.800Z,3.60
2023-04-14T15:10:06.910Z,3.70
2023-04-14T15:12:35.086Z,4.33
2023-04-14T15:15:03.222Z,3.60
2023-04-14T15:17:31.622Z,4.00
2023-04-14T15:20:04.267Z,4.20
2023-04-14T15:22:35.912Z,3.83
2023-04-14T15:25:04.101Z,3.70
2023-04-14T15:27:33.002Z,4.17
2023-04-14T15:30:01.423Z,3.80
2023-04-14T15:32:29.603Z,3.50
2023-04-14T15:34:58.289Z,3.60
2023-04-14T15:37:27.965Z,3.70
2023-04-14T15:39:57.599Z,4.40
2023-04-14T15:42:25.819Z,3.70
2023-04-14T15:44:54.065Z,3.70
2023-04-14T15:47:22.321Z,4.10
2023-04-14T15:50:09.265Z,4.43
2023-04-14T15:52:43.439Z,4.90
2023-04-14T15:55:13.046Z,4.07
2023-04-14T15:57:41.276Z,4.20
2023-04-14T16:00:10.665Z,4.20
2023-04-14T16:02:40.037Z,4.37
2023-04-14T16:05:09.213Z,4.13
2023-04-14T16:07:37.356Z,4.27
2023-04-14T16:10:06.421Z,4.60
2023-04-14T16:12:36.663Z,4.40
2023-04-14T16:15:08.195Z,4.53
2023-04-14T16:17:36.539Z,4.23
2023-04-14T16:20:04.980Z,3.77
2023-04-14T16:22:33.113Z,4.40
2023-04-14T16:25:01.268Z,4.00
2023-04-14T16:27:29.386Z,3.90
2023-04-14T16:29:58.890Z,3.43
2023-04-14T16:32:28.022Z,3.83
2023-04-14T16:34:56.180Z,4.63
2023-04-14T16:37:26.202Z,4.30
2023-04-14T16:39:57.685Z,3.60
2023-04-14T16:42:26.333Z,3.77
2023-04-14T16:44:54.725Z,4.00
2023-04-14T16:47:24.636Z,4.17
2023-04-14T16:49:52.869Z,4.37
2023-04-14T16:52:21.354Z,3.90
2023-04-14T16:54:49.540Z,3.90
2023-04-14T16:57:17.672Z,4.13
2023-04-14T16:59:46.265Z,4.03
2023-04-14T17:02:14.509Z,3.70
2023-04-14T17:04:44.592Z,3.63
2023-04-14T17:07:12.862Z,3.97
2023-04-14T17:09:41.003Z,4.40
2023-04-14T17:12:09.696Z,3.47
2023-04-14T17:14:38.514Z,3.90
2023-04-14T17:17:06.661Z,3.50
2023-04-14T17:19:34.777Z,3.50
2023-04-14T17:22:04.191Z,3.90
2023-04-14T17:24:35.334Z,3.40
2023-04-14T17:27:03.812Z,3.30
2023-04-14T17:29:31.963Z,3.67
2023-04-14T17:32:01.102Z,2.90
2023-04-14T17:34:29.626Z,3.63
2023-04-14T17:36:58.766Z,3.30
2023-04-14T17:39:29.079Z,3.47
2023-04-14T17:41:58.227Z,3.50
2023-04-14T17:44:32.279Z,3.47
2023-04-14T17:47:01.022Z,3.40
2023-04-14T17:49:29.410Z,3.20
2023-04-14T17:51:57.828Z,2.83
2023-04-14T17:54:26.461Z,3.00
2023-04-14T17:56:56.810Z,3.73
2023-04-14T17:59:24.971Z,3.17
2023-04-14T18:01:53.472Z,2.90
2023-04-14T18:04:21.711Z,3.33
2023-04-14T18:06:50.137Z,3.90
2023-04-14T18:09:18.256Z,4.13
2023-04-14T18:11:46.388Z,3.93
2023-04-14T18:14:16.093Z,3.93
2023-04-14T18:16:44.227Z,3.93
2023-04-14T18:19:12.392Z,3.83
2023-04-14T18:21:40.828Z,3.83
2023-04-14T18:26:41.734Z,4.27
2023-04-14T18:29:10.075Z,3.90
2023-04-14T18:31:39.601Z,3.40
2023-04-14T18:34:09.333Z,2.90
2023-04-14T18:36:38.817Z,3.50
2023-04-14T18:39:07.906Z,3.93
2023-04-14T18:41:36.164Z,5.70
2023-04-14T18:44:04.488Z,3.93
2023-04-14T18:46:32.615Z,4.20
2023-04-14T18:49:03.529Z,3.50
2023-04-14T18:51:32.553Z,3.33
2023-04-14T18:54:00.805Z,3.00
2023-04-14T18:56:29.198Z,3.27
2023-04-14T18:58:57.649Z,4.43
2023-04-14T19:01:25.855Z,3.80
2023-04-14T19:03:55.113Z,4.23
2023-04-14T19:06:24.700Z,4.17
2023-04-14T19:08:53.172Z,2.90
2023-04-14T19:11:21.753Z,3.53
2023-04-14T19:13:49.972Z,3.83
2023-04-14T19:16:18.302Z,2.93
2023-04-14T19:18:46.671Z,2.80
2023-04-14T19:21:14.728Z,3.17
2023-04-14T19:23:45.604Z,2.87
2023-04-14T19:26:13.865Z,3.47
2023-04-14T19:28:42.690Z,3.30
2023-04-14T19:31:11.026Z,4.10
2023-04-14T19:33:39.273Z,3.50
2023-04-14T19:36:13.038Z,3.87
2023-04-14T19:38:41.359Z,3.60
2023-04-14T19:41:11.016Z,4.20
2023-04-14T19:43:39.228Z,3.93
2023-04-14T19:46:09.549Z,3.70
2023-04-14T19:48:37.700Z,3.37
2023-04-14T19:51:05.900Z,3.03
2023-04-14T19:53:34.500Z,3.30
2023-04-14T19:56:03.499Z,4.10
2023-04-14T19:58:33.045Z,3.13
2023-04-14T20:01:01.370Z,3.00
2023-04-14T20:03:30.095Z,2.93
2023-04-14T20:05:59.835Z,3.30
2023-04-14T20:08:28.298Z,2.80
2023-04-14T20:10:56.466Z,2.63
2023-04-14T20:13:27.685Z,2.90
2023-04-14T20:15:57.206Z,2.53
2023-04-14T20:18:26.381Z,2.57
2023-04-14T20:20:55.288Z,2.80
2023-04-14T20:23:24.092Z,2.63
2023-04-14T20:25:52.968Z,2.77
2023-04-14T20:28:23.195Z,3.07
2023-04-14T20:30:52.853Z,2.87
2023-04-14T20:33:22.961Z,3.80
2023-04-14T20:35:53.897Z,3.07
2023-04-14T20:38:22.510Z,2.73
2023-04-14T20:40:50.613Z,2.93
2023-04-14T20:43:18.689Z,3.87
2023-04-14T20:45:49.679Z,2.93
2023-04-14T20:48:18.480Z,2.70
2023-04-14T20:50:49.813Z,3.90
2023-04-14T20:53:18.091Z,4.90
2023-04-14T20:55:46.220Z,5.07
2023-04-14T20:58:14.874Z,5.13
2023-04-14T21:00:43.415Z,5.10
2023-04-14T21:03:11.661Z,4.83
2023-04-14T21:05:40.532Z,4.37
2023-04-14T21:08:10.679Z,3.50
2023-04-14T21:11:14.802Z,4.40
2023-04-14T21:15:26.764Z,4.47
2023-04-14T21:16:16.361Z,4.47
2023-04-14T21:18:44.721Z,4.63
2023-04-14T21:21:13.595Z,4.20
2023-04-14T21:23:43.084Z,4.50
2023-04-14T21:26:11.147Z,4.90
2023-04-14T21:28:39.295Z,4.70
2023-04-14T21:31:08.104Z,4.50
2023-04-14T21:33:36.316Z,3.90
2023-04-14T21:36:04.539Z,4.07
2023-04-14T21:38:32.904Z,4.43
2023-04-14T21:41:02.721Z,4.17
2023-04-14T21:43:30.874Z,4.90
2023-04-14T21:45:59.173Z,4.70
2023-04-14T21:48:27.713Z,4.80
2023-04-14T21:50:56.250Z,5.20
2023-04-14T21:53:24.727Z,5.13
2023-04-14T21:56:08.796Z,5.50
2023-04-14T21:58:40.396Z,6.07
2023-04-14T22:01:09.458Z,7.07
2023-04-14T22:03:38.920Z,6.90
2023-04-14T22:06:07.518Z,6.90
2023-04-14T22:08:35.599Z,6.70
2023-04-14T22:11:03.770Z,8.20
2023-04-14T22:13:31.896Z,8.50
2023-04-14T22:16:02.411Z,10.67
2023-04-14T22:18:30.956Z,9.80
2023-04-14T22:20:59.220Z,10.67
2023-04-14T22:23:27.543Z,12.00
2023-04-14T22:25:56.153Z,17.50
2023-04-14T22:28:24.264Z,14.80
2023-04-14T22:30:52.310Z,16.52
2023-04-14T22:33:22.607Z,14.70
2023-04-14T22:35:50.763Z,14.23
2023-04-14T22:38:18.937Z,13.23
2023-04-14T22:40:47.698Z,12.10
2023-04-14T22:43:16.900Z,11.50
2023-04-14T22:45:45.173Z,11.30
2023-04-14T22:48:14.638Z,11.73
2023-04-14T22:50:44.190Z,12.37
2023-04-14T22:53:12.342Z,12.33
2023-04-14T22:55:40.530Z,12.70
2023-04-14T22:58:09.543Z,12.00
2023-04-14T23:00:38.385Z,14.10
2023-04-14T23:03:06.570Z,12.27
2023-04-14T23:05:34.774Z,10.73
2023-04-14T23:08:04.309Z,9.97
2023-04-14T23:10:32.606Z,8.67
2023-04-14T23:13:01.115Z,9.27
2023-04-14T23:15:29.334Z,8.47
2023-04-14T23:17:57.498Z,8.90
2023-04-14T23:20:25.714Z,8.07
2023-04-14T23:22:53.798Z,9.40
2023-04-14T23:25:23.583Z,7.90
2023-04-14T23:27:51.750Z,9.57
2023-04-14T23:30:20.511Z,7.23
2023-04-14T23:32:48.687Z,7.13
2023-04-14T23:35:17.115Z,7.33
2023-04-14T23:37:45.587Z,6.93
2023-04-14T23:40:14.876Z,6.67
2023-04-14T23:42:44.624Z,7.00
2023-04-14T23:45:12.727Z,7.37
2023-04-14T23:47:41.342Z,6.70
2023-04-14T23:50:10.015Z,8.20
2023-04-14T23:52:38.223Z,6.97
2023-04-14T23:55:07.083Z,6.27
2023-04-14T23:57:35.225Z,6.70
